sensor_id;sensor_type;location;lat;lon;timestamp;pressure;altitude;pressure_sealevel;temperature;humidity
17521;BME280;8878;-33.370;-70.552;2023-10-13T00:01:14;92164.09;;;16.56;53.90
17521;BME280;8878;-33.370;-70.552;2023-10-13T00:03:44;92166.00;;;16.41;54.58
17521;BME280;8878;-33.370;-70.552;2023-10-13T00:06:13;92169.19;;;16.30;55.08
17521;BME280;8878;-33.370;-70.552;2023-10-13T00:08:43;92167.06;;;16.18;55.96
17521;BME280;8878;-33.370;-70.552;2023-10-13T00:11:15;92167.78;;;16.10;56.78
17521;BME280;8878;-33.370;-70.552;2023-10-13T00:13:45;92170.03;;;16.03;56.06
17521;BME280;8878;-33.370;-70.552;2023-10-13T00:16:18;92172.41;;;16.04;55.59
17521;BME280;8878;-33.370;-70.552;2023-10-13T00:18:51;92176.16;;;16.03;56.01
17521;BME280;8878;-33.370;-70.552;2023-10-13T00:21:21;92186.69;;;15.95;56.71
17521;BME280;8878;-33.370;-70.552;2023-10-13T00:24:00;92177.84;;;15.86;56.40
17521;BME280;8878;-33.370;-70.552;2023-10-13T00:26:34;92182.19;;;15.82;57.54
17521;BME280;8878;-33.370;-70.552;2023-10-13T00:29:04;92184.94;;;15.77;56.93
17521;BME280;8878;-33.370;-70.552;2023-10-13T00:31:43;92184.84;;;15.68;58.24
17521;BME280;8878;-33.370;-70.552;2023-10-13T00:34:15;92193.50;;;15.60;59.24
17521;BME280;8878;-33.370;-70.552;2023-10-13T00:36:46;92198.13;;;15.54;59.59
17521;BME280;8878;-33.370;-70.552;2023-10-13T00:39:37;92208.34;;;15.47;60.83
17521;BME280;8878;-33.370;-70.552;2023-10-13T00:42:13;92207.81;;;15.32;61.13
17521;BME280;8878;-33.370;-70.552;2023-10-13T00:44:47;92209.00;;;15.25;60.95
17521;BME280;8878;-33.370;-70.552;2023-10-13T00:47:16;92215.38;;;15.24;62.29
17521;BME280;8878;-33.370;-70.552;2023-10-13T00:50:04;92214.47;;;15.15;63.83
17521;BME280;8878;-33.370;-70.552;2023-10-13T00:52:38;92219.19;;;15.05;63.83
17521;BME280;8878;-33.370;-70.552;2023-10-13T00:55:09;92213.22;;;14.94;62.70
17521;BME280;8878;-33.370;-70.552;2023-10-13T00:57:41;92217.75;;;14.94;64.03
17521;BME280;8878;-33.370;-70.552;2023-10-13T01:00:10;92214.63;;;14.92;65.81
17521;BME280;8878;-33.370;-70.552;2023-10-13T01:02:45;92223.53;;;14.82;67.09
17521;BME280;8878;-33.370;-70.552;2023-10-13T01:05:22;92227.69;;;14.69;68.15
17521;BME280;8878;-33.370;-70.552;2023-10-13T01:07:52;92227.69;;;14.69;66.34
17521;BME280;8878;-33.370;-70.552;2023-10-13T01:10:21;92234.50;;;14.75;63.50
17521;BME280;8878;-33.370;-70.552;2023-10-13T01:12:56;92223.53;;;14.82;64.57
17521;BME280;8878;-33.370;-70.552;2023-10-13T01:15:23;92225.75;;;14.75;65.95
17521;BME280;8878;-33.370;-70.552;2023-10-13T01:18:07;92221.88;;;14.67;67.33
17521;BME280;8878;-33.370;-70.552;2023-10-13T01:20:39;92215.88;;;14.62;66.73
17521;BME280;8878;-33.370;-70.552;2023-10-13T01:23:14;92215.88;;;14.62;66.69
17521;BME280;8878;-33.370;-70.552;2023-10-13T01:25:45;92211.81;;;14.64;67.33
17521;BME280;8878;-33.370;-70.552;2023-10-13T01:28:15;92209.75;;;14.61;68.21
17521;BME280;8878;-33.370;-70.552;2023-10-13T01:30:43;92214.22;;;14.47;69.30
17521;BME280;8878;-33.370;-70.552;2023-10-13T01:33:17;92212.25;;;14.34;70.02
17521;BME280;8878;-33.370;-70.552;2023-10-13T01:35:53;92213.41;;;14.28;69.90
17521;BME280;8878;-33.370;-70.552;2023-10-13T01:38:25;92207.00;;;14.29;68.28
17521;BME280;8878;-33.370;-70.552;2023-10-13T01:41:00;92206.56;;;14.22;67.77
17521;BME280;8878;-33.370;-70.552;2023-10-13T01:43:31;92208.22;;;14.18;68.13
17521;BME280;8878;-33.370;-70.552;2023-10-13T01:45:59;92207.69;;;14.16;69.73
17521;BME280;8878;-33.370;-70.552;2023-10-13T01:48:30;92204.34;;;14.10;71.31
17521;BME280;8878;-33.370;-70.552;2023-10-13T01:50:59;92206.72;;;14.11;71.83
17521;BME280;8878;-33.370;-70.552;2023-10-13T01:53:34;92200.88;;;14.09;71.76
17521;BME280;8878;-33.370;-70.552;2023-10-13T01:56:02;92204.97;;;14.02;71.30
17521;BME280;8878;-33.370;-70.552;2023-10-13T01:58:40;92196.84;;;13.93;71.83
17521;BME280;8878;-33.370;-70.552;2023-10-13T02:01:14;92192.69;;;13.87;71.27
17521;BME280;8878;-33.370;-70.552;2023-10-13T02:03:53;92193.75;;;13.86;71.29
17521;BME280;8878;-33.370;-70.552;2023-10-13T02:06:29;92180.56;;;13.81;71.70
17521;BME280;8878;-33.370;-70.552;2023-10-13T02:09:03;92181.69;;;13.75;69.62
17521;BME280;8878;-33.370;-70.552;2023-10-13T02:11:38;92167.28;;;13.62;68.36
17521;BME280;8878;-33.370;-70.552;2023-10-13T02:14:06;92170.72;;;13.63;68.96
17521;BME280;8878;-33.370;-70.552;2023-10-13T02:16:38;92165.69;;;13.61;70.65
17521;BME280;8878;-33.370;-70.552;2023-10-13T02:19:06;92172.56;;;13.62;70.19
17521;BME280;8878;-33.370;-70.552;2023-10-13T02:21:36;92168.34;;;13.61;69.51
17521;BME280;8878;-33.370;-70.552;2023-10-13T02:24:10;92179.81;;;13.57;69.17
17521;BME280;8878;-33.370;-70.552;2023-10-13T02:26:45;92179.06;;;13.51;69.51
17521;BME280;8878;-33.370;-70.552;2023-10-13T02:29:13;92170.81;;;13.53;69.55
17521;BME280;8878;-33.370;-70.552;2023-10-13T02:31:44;92174.25;;;13.53;68.83
17521;BME280;8878;-33.370;-70.552;2023-10-13T02:34:21;92170.44;;;13.41;67.50
17521;BME280;8878;-33.370;-70.552;2023-10-13T02:36:51;92175.09;;;13.25;68.18
17521;BME280;8878;-33.370;-70.552;2023-10-13T02:39:22;92180.00;;;13.13;68.73
17521;BME280;8878;-33.370;-70.552;2023-10-13T02:41:54;92172.50;;;13.20;69.64
17521;BME280;8878;-33.370;-70.552;2023-10-13T02:44:22;92171.66;;;13.24;70.68
17521;BME280;8878;-33.370;-70.552;2023-10-13T02:46:58;92183.06;;;13.25;70.84
17521;BME280;8878;-33.370;-70.552;2023-10-13T02:49:26;92178.53;;;13.25;70.55
17521;BME280;8878;-33.370;-70.552;2023-10-13T02:51:58;92182.53;;;13.23;71.32
17521;BME280;8878;-33.370;-70.552;2023-10-13T02:54:28;92184.69;;;13.21;69.61
17521;BME280;8878;-33.370;-70.552;2023-10-13T02:57:04;92184.19;;;13.19;69.26
17521;BME280;8878;-33.370;-70.552;2023-10-13T02:59:33;92187.09;;;13.17;68.49
17521;BME280;8878;-33.370;-70.552;2023-10-13T03:02:08;92183.69;;;13.12;72.22
17521;BME280;8878;-33.370;-70.552;2023-10-13T03:04:46;92186.16;;;13.03;70.71
17521;BME280;8878;-33.370;-70.552;2023-10-13T03:07:15;92183.97;;;13.10;71.06
17521;BME280;8878;-33.370;-70.552;2023-10-13T03:09:51;92187.19;;;13.07;71.76
17521;BME280;8878;-33.370;-70.552;2023-10-13T03:12:24;92192.56;;;12.97;72.29
17521;BME280;8878;-33.370;-70.552;2023-10-13T03:15:00;92182.81;;;12.92;72.10
17521;BME280;8878;-33.370;-70.552;2023-10-13T03:17:38;92186.00;;;12.89;71.72
17521;BME280;8878;-33.370;-70.552;2023-10-13T03:20:10;92181.44;;;12.95;74.27
17521;BME280;8878;-33.370;-70.552;2023-10-13T03:22:40;92187.81;;;12.94;77.28
17521;BME280;8878;-33.370;-70.552;2023-10-13T03:25:13;92182.50;;;12.94;77.91
17521;BME280;8878;-33.370;-70.552;2023-10-13T03:27:49;92176.22;;;12.90;78.24
17521;BME280;8878;-33.370;-70.552;2023-10-13T03:30:31;92170.19;;;12.84;76.54
17521;BME280;8878;-33.370;-70.552;2023-10-13T03:33:06;92167.09;;;12.72;75.01
17521;BME280;8878;-33.370;-70.552;2023-10-13T03:35:37;92168.72;;;12.68;74.79
17521;BME280;8878;-33.370;-70.552;2023-10-13T03:38:07;92169.00;;;12.67;73.88
17521;BME280;8878;-33.370;-70.552;2023-10-13T03:40:57;92160.25;;;12.66;74.53
17521;BME280;8878;-33.370;-70.552;2023-10-13T03:43:34;92155.22;;;12.70;74.29
17521;BME280;8878;-33.370;-70.552;2023-10-13T03:46:11;92161.00;;;12.72;72.94
17521;BME280;8878;-33.370;-70.552;2023-10-13T03:48:41;92154.63;;;12.73;72.62
17521;BME280;8878;-33.370;-70.552;2023-10-13T03:51:21;92158.34;;;12.72;74.45
17521;BME280;8878;-33.370;-70.552;2023-10-13T03:53:57;92158.72;;;12.60;75.08
17521;BME280;8878;-33.370;-70.552;2023-10-13T03:56:36;92155.06;;;12.51;74.62
17521;BME280;8878;-33.370;-70.552;2023-10-13T03:59:08;92149.00;;;12.50;75.04
17521;BME280;8878;-33.370;-70.552;2023-10-13T04:01:45;92137.66;;;12.45;75.32
17521;BME280;8878;-33.370;-70.552;2023-10-13T04:04:25;92151.97;;;12.44;75.34
17521;BME280;8878;-33.370;-70.552;2023-10-13T04:07:14;92147.00;;;12.37;77.42
17521;BME280;8878;-33.370;-70.552;2023-10-13T04:10:01;92149.16;;;12.30;79.50
17521;BME280;8878;-33.370;-70.552;2023-10-13T04:12:49;92143.28;;;12.38;79.02
17521;BME280;8878;-33.370;-70.552;2023-10-13T04:15:35;92140.03;;;12.46;76.80
17521;BME280;8878;-33.370;-70.552;2023-10-13T04:18:10;92134.22;;;12.49;81.65
17521;BME280;8878;-33.370;-70.552;2023-10-13T04:21:01;92134.47;;;12.48;82.34
17521;BME280;8878;-33.370;-70.552;2023-10-13T04:23:46;92139.25;;;12.46;83.30
17521;BME280;8878;-33.370;-70.552;2023-10-13T04:26:31;92132.19;;;12.36;84.44
17521;BME280;8878;-33.370;-70.552;2023-10-13T04:29:26;92129.06;;;12.29;85.62
17521;BME280;8878;-33.370;-70.552;2023-10-13T04:32:12;92128.03;;;12.25;82.11
17521;BME280;8878;-33.370;-70.552;2023-10-13T04:34:42;92133.09;;;12.22;84.72
17521;BME280;8878;-33.370;-70.552;2023-10-13T04:37:12;92125.44;;;12.15;81.09
17521;BME280;8878;-33.370;-70.552;2023-10-13T04:39:56;92123.69;;;12.05;87.08
17521;BME280;8878;-33.370;-70.552;2023-10-13T04:42:37;92126.06;;;12.02;86.11
17521;BME280;8878;-33.370;-70.552;2023-10-13T04:45:23;92138.00;;;11.99;87.77
17521;BME280;8878;-33.370;-70.552;2023-10-13T04:48:16;92135.66;;;11.93;82.95
17521;BME280;8878;-33.370;-70.552;2023-10-13T04:51:01;92126.16;;;11.87;85.93
17521;BME280;8878;-33.370;-70.552;2023-10-13T04:54:01;92121.75;;;11.72;84.72
17521;BME280;8878;-33.370;-70.552;2023-10-13T04:56:38;92117.84;;;11.64;81.68
17521;BME280;8878;-33.370;-70.552;2023-10-13T04:59:46;92114.69;;;11.52;80.54
17521;BME280;8878;-33.370;-70.552;2023-10-13T05:02:40;92114.34;;;11.69;80.19
17521;BME280;8878;-33.370;-70.552;2023-10-13T05:05:44;92110.88;;;11.73;79.48
17521;BME280;8878;-33.370;-70.552;2023-10-13T05:08:30;92109.88;;;11.69;84.87
17521;BME280;8878;-33.370;-70.552;2023-10-13T05:11:16;92107.25;;;11.64;87.02
17521;BME280;8878;-33.370;-70.552;2023-10-13T05:14:01;92106.22;;;11.60;87.37
17521;BME280;8878;-33.370;-70.552;2023-10-13T05:16:55;92113.38;;;11.55;87.09
17521;BME280;8878;-33.370;-70.552;2023-10-13T05:19:43;92109.94;;;11.54;87.68
17521;BME280;8878;-33.370;-70.552;2023-10-13T05:22:29;92108.91;;;11.50;87.76
17521;BME280;8878;-33.370;-70.552;2023-10-13T05:25:14;92104.69;;;11.44;87.16
17521;BME280;8878;-33.370;-70.552;2023-10-13T05:28:00;92106.31;;;11.40;88.00
17521;BME280;8878;-33.370;-70.552;2023-10-13T05:30:54;92102.13;;;11.34;86.25
17521;BME280;8878;-33.370;-70.552;2023-10-13T05:33:40;92100.00;;;11.36;84.96
17521;BME280;8878;-33.370;-70.552;2023-10-13T05:36:27;92089.44;;;11.36;90.29
17521;BME280;8878;-33.370;-70.552;2023-10-13T05:39:13;92087.84;;;11.35;88.57
17521;BME280;8878;-33.370;-70.552;2023-10-13T05:41:58;92081.81;;;11.24;91.24
17521;BME280;8878;-33.370;-70.552;2023-10-13T05:44:44;92076.31;;;11.11;89.27
17521;BME280;8878;-33.370;-70.552;2023-10-13T05:47:23;92071.91;;;11.01;83.88
17521;BME280;8878;-33.370;-70.552;2023-10-13T05:50:14;92065.75;;;11.11;86.89
17521;BME280;8878;-33.370;-70.552;2023-10-13T05:52:58;92064.41;;;11.18;86.56
17521;BME280;8878;-33.370;-70.552;2023-10-13T05:55:43;92053.81;;;11.23;86.83
17521;BME280;8878;-33.370;-70.552;2023-10-13T05:58:44;92049.09;;;11.20;87.11
17521;BME280;8878;-33.370;-70.552;2023-10-13T06:01:29;92048.03;;;11.16;86.37
17521;BME280;8878;-33.370;-70.552;2023-10-13T06:04:15;92045.72;;;11.05;83.96
17521;BME280;8878;-33.370;-70.552;2023-10-13T06:07:01;92038.34;;;11.02;84.82
17521;BME280;8878;-33.370;-70.552;2023-10-13T06:09:48;92038.06;;;11.03;81.03
17521;BME280;8878;-33.370;-70.552;2023-10-13T06:12:34;92043.34;;;11.08;79.93
17521;BME280;8878;-33.370;-70.552;2023-10-13T06:15:19;92031.41;;;11.16;78.17
17521;BME280;8878;-33.370;-70.552;2023-10-13T06:18:05;92036.19;;;11.14;78.30
17521;BME280;8878;-33.370;-70.552;2023-10-13T06:21:02;92035.09;;;11.20;78.54
17521;BME280;8878;-33.370;-70.552;2023-10-13T06:23:47;92029.25;;;11.28;79.83
17521;BME280;8878;-33.370;-70.552;2023-10-13T06:26:35;92026.63;;;11.23;79.15
17521;BME280;8878;-33.370;-70.552;2023-10-13T06:29:21;92035.13;;;11.15;80.73
17521;BME280;8878;-33.370;-70.552;2023-10-13T06:31:50;92021.16;;;11.09;80.59
17521;BME280;8878;-33.370;-70.552;2023-10-13T06:34:19;92026.19;;;11.06;82.01
17521;BME280;8878;-33.370;-70.552;2023-10-13T06:36:59;92016.69;;;11.05;84.96
17521;BME280;8878;-33.370;-70.552;2023-10-13T06:39:28;92019.38;;;10.99;84.87
17521;BME280;8878;-33.370;-70.552;2023-10-13T06:42:04;92018.38;;;10.85;81.86
17521;BME280;8878;-33.370;-70.552;2023-10-13T06:44:33;92020.47;;;10.83;80.46
17521;BME280;8878;-33.370;-70.552;2023-10-13T06:47:03;92026.03;;;10.77;80.80
17521;BME280;8878;-33.370;-70.552;2023-10-13T06:49:32;92016.81;;;10.74;81.50
17521;BME280;8878;-33.370;-70.552;2023-10-13T06:52:05;92015.72;;;10.85;82.29
17521;BME280;8878;-33.370;-70.552;2023-10-13T06:54:35;92018.88;;;10.87;81.98
17521;BME280;8878;-33.370;-70.552;2023-10-13T06:57:07;92014.16;;;10.84;81.12
17521;BME280;8878;-33.370;-70.552;2023-10-13T06:59:41;92011.25;;;10.86;79.42
17521;BME280;8878;-33.370;-70.552;2023-10-13T07:02:10;92014.66;;;10.81;79.30
17521;BME280;8878;-33.370;-70.552;2023-10-13T07:04:48;92020.53;;;10.68;79.42
17521;BME280;8878;-33.370;-70.552;2023-10-13T07:07:18;92008.38;;;10.77;86.26
17521;BME280;8878;-33.370;-70.552;2023-10-13T07:09:49;92011.53;;;10.79;88.99
17521;BME280;8878;-33.370;-70.552;2023-10-13T07:12:24;92015.75;;;10.75;85.95
17521;BME280;8878;-33.370;-70.552;2023-10-13T07:14:54;92002.34;;;10.62;82.79
17521;BME280;8878;-33.370;-70.552;2023-10-13T07:17:37;92006.03;;;10.71;84.49
17521;BME280;8878;-33.370;-70.552;2023-10-13T07:20:08;92007.88;;;10.70;85.43
17521;BME280;8878;-33.370;-70.552;2023-10-13T07:22:50;92001.56;;;10.61;81.03
17521;BME280;8878;-33.370;-70.552;2023-10-13T07:25:24;92004.22;;;10.56;80.71
17521;BME280;8878;-33.370;-70.552;2023-10-13T07:28:01;92009.19;;;10.68;85.51
17521;BME280;8878;-33.370;-70.552;2023-10-13T07:30:35;92005.50;;;10.69;81.80
17521;BME280;8878;-33.370;-70.552;2023-10-13T07:33:14;92002.59;;;10.60;80.78
17521;BME280;8878;-33.370;-70.552;2023-10-13T07:35:46;92010.03;;;10.58;82.67
17521;BME280;8878;-33.370;-70.552;2023-10-13T07:38:18;92001.03;;;10.59;83.01
17521;BME280;8878;-33.370;-70.552;2023-10-13T07:40:48;92008.69;;;10.60;86.20
17521;BME280;8878;-33.370;-70.552;2023-10-13T07:43:20;92013.16;;;10.60;85.26
17521;BME280;8878;-33.370;-70.552;2023-10-13T07:45:50;92004.22;;;10.46;84.24
17521;BME280;8878;-33.370;-70.552;2023-10-13T07:48:25;92010.56;;;10.45;87.88
17521;BME280;8878;-33.370;-70.552;2023-10-13T07:51:04;92013.78;;;10.37;87.03
17521;BME280;8878;-33.370;-70.552;2023-10-13T07:53:37;92014.84;;;10.26;84.87
17521;BME280;8878;-33.370;-70.552;2023-10-13T07:56:10;92019.84;;;10.37;86.15
17521;BME280;8878;-33.370;-70.552;2023-10-13T07:58:42;92020.06;;;10.46;88.75
17521;BME280;8878;-33.370;-70.552;2023-10-13T08:01:19;92015.34;;;10.33;83.84
17521;BME280;8878;-33.370;-70.552;2023-10-13T08:03:50;92014.31;;;10.29;84.41
17521;BME280;8878;-33.370;-70.552;2023-10-13T08:06:31;92012.16;;;10.41;87.63
17521;BME280;8878;-33.370;-70.552;2023-10-13T08:09:03;92015.88;;;10.35;85.31
17521;BME280;8878;-33.370;-70.552;2023-10-13T08:11:56;92006.41;;;10.29;84.69
17521;BME280;8878;-33.370;-70.552;2023-10-13T08:14:28;92012.72;;;10.33;83.31
17521;BME280;8878;-33.370;-70.552;2023-10-13T08:17:01;92012.75;;;10.23;81.14
17521;BME280;8878;-33.370;-70.552;2023-10-13T08:19:34;91998.47;;;10.24;81.54
17521;BME280;8878;-33.370;-70.552;2023-10-13T08:22:12;92005.84;;;10.37;82.68
17521;BME280;8878;-33.370;-70.552;2023-10-13T08:25:02;92008.50;;;10.27;81.53
17521;BME280;8878;-33.370;-70.552;2023-10-13T08:27:47;92008.47;;;10.16;81.15
17521;BME280;8878;-33.370;-70.552;2023-10-13T08:30:35;92015.63;;;10.26;81.91
17521;BME280;8878;-33.370;-70.552;2023-10-13T08:33:19;92008.78;;;10.15;81.50
17521;BME280;8878;-33.370;-70.552;2023-10-13T08:35:54;92005.31;;;10.09;82.47
17521;BME280;8878;-33.370;-70.552;2023-10-13T08:38:43;92015.09;;;10.14;82.23
17521;BME280;8878;-33.370;-70.552;2023-10-13T08:41:22;92011.66;;;10.13;82.87
17521;BME280;8878;-33.370;-70.552;2023-10-13T08:44:01;92008.47;;;10.16;83.16
17521;BME280;8878;-33.370;-70.552;2023-10-13T08:46:34;92010.59;;;10.09;82.21
17521;BME280;8878;-33.370;-70.552;2023-10-13T08:49:33;92008.53;;;10.01;82.67
17521;BME280;8878;-33.370;-70.552;2023-10-13T08:52:14;92009.81;;;10.04;83.94
17521;BME280;8878;-33.370;-70.552;2023-10-13T08:55:01;92008.50;;;10.11;85.37
17521;BME280;8878;-33.370;-70.552;2023-10-13T08:58:02;92013.25;;;10.04;86.76
17521;BME280;8878;-33.370;-70.552;2023-10-13T09:00:41;92013.25;;;9.99;88.38
17521;BME280;8878;-33.370;-70.552;2023-10-13T09:03:40;92014.84;;;9.90;87.61
17521;BME280;8878;-33.370;-70.552;2023-10-13T09:06:13;92020.66;;;9.87;85.63
17521;BME280;8878;-33.370;-70.552;2023-10-13T09:08:46;92026.19;;;9.86;88.90
17521;BME280;8878;-33.370;-70.552;2023-10-13T09:11:32;92021.19;;;9.79;86.72
17521;BME280;8878;-33.370;-70.552;2023-10-13T09:14:15;92023.00;;;9.68;85.13
17521;BME280;8878;-33.370;-70.552;2023-10-13T09:17:03;92019.31;;;9.59;84.74
17521;BME280;8878;-33.370;-70.552;2023-10-13T09:19:51;92024.34;;;9.66;86.81
17521;BME280;8878;-33.370;-70.552;2023-10-13T09:22:24;92031.44;;;9.65;85.88
17521;BME280;8878;-33.370;-70.552;2023-10-13T09:24:57;92025.09;;;9.66;84.13
17521;BME280;8878;-33.370;-70.552;2023-10-13T09:27:30;92043.03;;;9.74;84.19
17521;BME280;8878;-33.370;-70.552;2023-10-13T09:29:59;92025.91;;;9.57;83.41
17521;BME280;8878;-33.370;-70.552;2023-10-13T09:32:33;92035.41;;;9.73;85.22
17521;BME280;8878;-33.370;-70.552;2023-10-13T09:35:17;92034.88;;;9.66;84.74
17521;BME280;8878;-33.370;-70.552;2023-10-13T09:37:50;92033.28;;;9.55;87.34
17521;BME280;8878;-33.370;-70.552;2023-10-13T09:40:19;92049.34;;;9.58;88.74
17521;BME280;8878;-33.370;-70.552;2023-10-13T09:42:56;92029.31;;;9.47;86.29
17521;BME280;8878;-33.370;-70.552;2023-10-13T09:45:30;92043.81;;;9.55;88.74
17521;BME280;8878;-33.370;-70.552;2023-10-13T09:48:03;92034.84;;;9.51;87.34
17521;BME280;8878;-33.370;-70.552;2023-10-13T09:50:39;92034.81;;;9.46;86.85
17521;BME280;8878;-33.370;-70.552;2023-10-13T09:53:11;92040.13;;;9.51;89.61
17521;BME280;8878;-33.370;-70.552;2023-10-13T09:55:44;92049.84;;;9.45;86.93
17521;BME280;8878;-33.370;-70.552;2023-10-13T09:58:16;92042.75;;;9.51;91.12
17521;BME280;8878;-33.370;-70.552;2023-10-13T10:00:48;92050.38;;;9.42;87.85
17521;BME280;8878;-33.370;-70.552;2023-10-13T10:03:25;92045.09;;;9.52;89.47
17521;BME280;8878;-33.370;-70.552;2023-10-13T10:06:21;92044.06;;;9.48;88.10
17521;BME280;8878;-33.370;-70.552;2023-10-13T10:09:07;92047.19;;;9.45;87.38
17521;BME280;8878;-33.370;-70.552;2023-10-13T10:12:01;92040.66;;;9.58;91.00
17521;BME280;8878;-33.370;-70.552;2023-10-13T10:15:03;92031.72;;;9.59;91.83
17521;BME280;8878;-33.370;-70.552;2023-10-13T10:17:41;92026.94;;;9.61;93.02
17521;BME280;8878;-33.370;-70.552;2023-10-13T10:20:12;92035.38;;;9.63;94.40
17521;BME280;8878;-33.370;-70.552;2023-10-13T10:22:58;92028.00;;;9.55;90.76
17521;BME280;8878;-33.370;-70.552;2023-10-13T10:25:31;92030.38;;;9.56;89.01
17521;BME280;8878;-33.370;-70.552;2023-10-13T10:28:05;92028.00;;;9.55;87.73
17521;BME280;8878;-33.370;-70.552;2023-10-13T10:30:36;92037.47;;;9.61;86.41
17521;BME280;8878;-33.370;-70.552;2023-10-13T10:33:09;92029.06;;;9.43;86.64
17521;BME280;8878;-33.370;-70.552;2023-10-13T10:35:41;92024.84;;;9.53;89.91
17521;BME280;8878;-33.370;-70.552;2023-10-13T10:38:14;92035.38;;;9.53;88.14
17521;BME280;8878;-33.370;-70.552;2023-10-13T10:41:00;92026.41;;;9.54;87.90
17521;BME280;8878;-33.370;-70.552;2023-10-13T10:43:37;92031.41;;;9.60;88.56
17521;BME280;8878;-33.370;-70.552;2023-10-13T10:46:13;92021.94;;;9.54;86.48
17521;BME280;8878;-33.370;-70.552;2023-10-13T10:48:42;92020.63;;;9.57;85.04
17521;BME280;8878;-33.370;-70.552;2023-10-13T10:51:13;92030.66;;;9.70;87.85
17521;BME280;8878;-33.370;-70.552;2023-10-13T10:53:52;92027.75;;;9.71;88.42
17521;BME280;8878;-33.370;-70.552;2023-10-13T10:56:24;92023.53;;;9.75;90.51
17521;BME280;8878;-33.370;-70.552;2023-10-13T10:59:04;92027.50;;;9.78;90.87
17521;BME280;8878;-33.370;-70.552;2023-10-13T11:01:44;92023.28;;;9.87;90.52
17521;BME280;8878;-33.370;-70.552;2023-10-13T11:04:18;92015.63;;;9.96;88.47
17521;BME280;8878;-33.370;-70.552;2023-10-13T11:06:52;92018.78;;;10.03;88.56
17521;BME280;8878;-33.370;-70.552;2023-10-13T11:09:27;92014.31;;;10.13;88.19
17521;BME280;8878;-33.370;-70.552;2023-10-13T11:12:11;92020.09;;;10.26;86.16
17521;BME280;8878;-33.370;-70.552;2023-10-13T11:14:44;92021.44;;;10.28;83.87
17521;BME280;8878;-33.370;-70.552;2023-10-13T11:17:20;92023.25;;;10.33;82.26
17521;BME280;8878;-33.370;-70.552;2023-10-13T11:19:53;92017.16;;;10.47;81.75
17521;BME280;8878;-33.370;-70.552;2023-10-13T11:22:23;92017.66;;;10.59;80.58
17521;BME280;8878;-33.370;-70.552;2023-10-13T11:25:01;92015.53;;;10.62;79.49
17521;BME280;8878;-33.370;-70.552;2023-10-13T11:27:36;92014.47;;;10.68;77.63
17521;BME280;8878;-33.370;-70.552;2023-10-13T11:30:28;92026.25;;;10.90;77.50
17521;BME280;8878;-33.370;-70.552;2023-10-13T11:33:09;92024.88;;;11.08;76.27
17521;BME280;8878;-33.370;-70.552;2023-10-13T11:35:39;92029.84;;;11.15;75.02
17521;BME280;8878;-33.370;-70.552;2023-10-13T11:38:23;92040.63;;;11.28;74.35
17521;BME280;8878;-33.370;-70.552;2023-10-13T11:40:58;92033.97;;;11.36;73.10
17521;BME280;8878;-33.370;-70.552;2023-10-13T11:43:45;92039.19;;;11.46;71.75
17521;BME280;8878;-33.370;-70.552;2023-10-13T11:46:30;92031.22;;;11.56;71.78
17521;BME280;8878;-33.370;-70.552;2023-10-13T11:49:16;92036.13;;;11.68;70.69
17521;BME280;8878;-33.370;-70.552;2023-10-13T11:51:58;92026.28;;;11.84;69.69
17521;BME280;8878;-33.370;-70.552;2023-10-13T11:54:43;92024.59;;;11.98;68.72
17521;BME280;8878;-33.370;-70.552;2023-10-13T11:57:15;92031.34;;;12.14;69.37
17521;BME280;8878;-33.370;-70.552;2023-10-13T11:59:48;92030.69;;;12.27;67.75
17521;BME280;8878;-33.370;-70.552;2023-10-13T12:02:43;92032.75;;;12.35;64.18
17521;BME280;8878;-33.370;-70.552;2023-10-13T12:05:29;92027.91;;;12.42;64.45
17521;BME280;8878;-33.370;-70.552;2023-10-13T12:08:16;92034.59;;;12.59;65.48
17521;BME280;8878;-33.370;-70.552;2023-10-13T12:10:59;92035.25;;;12.74;65.16
17521;BME280;8878;-33.370;-70.552;2023-10-13T12:13:50;92039.66;;;12.84;64.01
17521;BME280;8878;-33.370;-70.552;2023-10-13T12:16:20;92042.63;;;13.01;63.97
17521;BME280;8878;-33.370;-70.552;2023-10-13T12:18:50;92044.06;;;13.17;63.23
17521;BME280;8878;-33.370;-70.552;2023-10-13T12:21:20;92041.84;;;13.24;61.61
17521;BME280;8878;-33.370;-70.552;2023-10-13T12:23:50;92047.50;;;13.37;56.03
17521;BME280;8878;-33.370;-70.552;2023-10-13T12:26:20;92050.56;;;13.49;54.50
17521;BME280;8878;-33.370;-70.552;2023-10-13T12:29:01;92039.59;;;13.74;58.15
17521;BME280;8878;-33.370;-70.552;2023-10-13T12:31:34;92046.34;;;13.85;59.74
17521;BME280;8878;-33.370;-70.552;2023-10-13T12:34:06;92042.22;;;13.93;60.58
17521;BME280;8878;-33.370;-70.552;2023-10-13T12:36:41;92044.97;;;14.06;61.49
17521;BME280;8878;-33.370;-70.552;2023-10-13T12:39:20;92050.38;;;14.15;60.29
17521;BME280;8878;-33.370;-70.552;2023-10-13T12:42:06;92051.59;;;14.23;61.14
17521;BME280;8878;-33.370;-70.552;2023-10-13T12:44:53;92048.28;;;14.31;60.78
17521;BME280;8878;-33.370;-70.552;2023-10-13T12:47:39;92036.78;;;14.35;59.88
17521;BME280;8878;-33.370;-70.552;2023-10-13T12:50:25;92043.53;;;14.46;58.89
17521;BME280;8878;-33.370;-70.552;2023-10-13T12:53:10;92039.22;;;14.50;58.67
17521;BME280;8878;-33.370;-70.552;2023-10-13T12:55:41;92046.50;;;14.59;58.20
17521;BME280;8878;-33.370;-70.552;2023-10-13T12:58:10;92046.72;;;14.62;58.93
17521;BME280;8878;-33.370;-70.552;2023-10-13T13:00:43;92046.91;;;14.66;58.57
17521;BME280;8878;-33.370;-70.552;2023-10-13T13:03:15;92042.50;;;14.75;60.25
17521;BME280;8878;-33.370;-70.552;2023-10-13T13:05:45;92043.19;;;14.80;60.00
17521;BME280;8878;-33.370;-70.552;2023-10-13T13:08:15;92038.50;;;14.77;58.73
17521;BME280;8878;-33.370;-70.552;2023-10-13T13:10:49;92043.81;;;14.77;57.66
17521;BME280;8878;-33.370;-70.552;2023-10-13T13:13:19;92035.34;;;14.89;57.73
17521;BME280;8878;-33.370;-70.552;2023-10-13T13:15:53;92040.56;;;14.94;56.50
17521;BME280;8878;-33.370;-70.552;2023-10-13T13:18:23;92034.16;;;15.09;57.03
17521;BME280;8878;-33.370;-70.552;2023-10-13T13:20:52;92035.06;;;15.18;54.94
17521;BME280;8878;-33.370;-70.552;2023-10-13T13:23:22;92033.38;;;15.22;55.01
17521;BME280;8878;-33.370;-70.552;2023-10-13T13:25:52;92039.47;;;15.22;53.10
17521;BME280;8878;-33.370;-70.552;2023-10-13T13:28:23;92035.22;;;15.35;54.68
17521;BME280;8878;-33.370;-70.552;2023-10-13T13:30:53;92047.91;;;15.52;53.83
17521;BME280;8878;-33.370;-70.552;2023-10-13T13:33:22;92038.00;;;15.57;52.18